»·PEaware :: AAL1111 KSNA-KPHX

AAL1111 :: KSNA-KPHX

FLIGHT INFORMATION

Flight Status: Arrived
Operator:
American Airlines
More flights by this operator :: More flights under this callsign
Pilot: Drew L. (13237)
Aircraft: BOEING 737-800
(B738)
More flights by this aircraft type
Origin: KSNA John Wayne-Orange Co
United States
Destination: KPHX Phoenix Sky Harbor Intl
United States
More flights between these airports :: More routes between these airports
Route: +PIGGN2 CNERY BLH HYDRR1
File this flight plan on PilotEdge
Remarks: PBN / A1B1C1D1S1S2 DOF / 180408 REG / N806SB EET / KZAB0028 OPR / AAL PER / C RMK / TCAS SIMBRIEF
Altitude:
(Current/Filed)
33,000ft
Speed:
(Current/Filed)
450kts
Departed: 07-Apr-18 07:46 PM
Arrived: 07-Apr-18 08:41 PM
Distance/Time
Traveled:
294nm/0:55
Distance/Time
To Go:
Arrived

Flight Plot

Page will automatically refresh every two minutes.

Flight plan parsing failed; only flown route is shown


Map Options




Map Legend


Flown Route
Filed Route
Departure Airport
Arrival Airport
Navaid (VOR, NDB)
Fix

Horizontal Profiles

Position Reports

Time Latitude Longitude Heading Altitude Ground
Speed
07-Apr-18 18:55 33.680117 -117.861826 90 64ft 0kts
07-Apr-18 18:56 33.680117 -117.861826 90 64ft 0kts
07-Apr-18 18:57 33.680117 -117.861826 90 64ft 0kts
07-Apr-18 18:58 33.680117 -117.861826 90 64ft 0kts
07-Apr-18 18:59 33.680117 -117.861826 90 64ft 0kts
07-Apr-18 19:00 33.680117 -117.861826 90 64ft 0kts
07-Apr-18 19:01 33.680117 -117.861826 90 64ft 0kts
07-Apr-18 19:02 33.680117 -117.861826 90 64ft 0kts
07-Apr-18 19:03 33.680117 -117.861826 90 64ft 0kts
07-Apr-18 19:04 33.680117 -117.861826 90 64ft 0kts
07-Apr-18 19:05 33.680117 -117.861826 90 64ft 0kts
07-Apr-18 19:06 33.680117 -117.861826 90 64ft 0kts
07-Apr-18 19:07 33.680117 -117.861826 90 64ft 0kts
07-Apr-18 19:08 33.680117 -117.861826 90 64ft 0kts
07-Apr-18 19:09 33.680117 -117.861826 90 64ft 0kts
07-Apr-18 19:10 33.680117 -117.861826 90 64ft 0kts
07-Apr-18 19:11 33.680117 -117.861826 90 64ft 0kts
07-Apr-18 19:12 33.680117 -117.861826 90 64ft 0kts
07-Apr-18 19:13 33.680117 -117.861826 90 64ft 0kts
07-Apr-18 19:14 33.680117 -117.861826 90 64ft 0kts
07-Apr-18 19:15 33.680117 -117.861826 90 64ft 0kts
07-Apr-18 19:16 33.680117 -117.861826 90 64ft 0kts
07-Apr-18 19:17 33.680117 -117.861826 90 64ft 0kts
07-Apr-18 19:18 33.680117 -117.861826 90 64ft 0kts
07-Apr-18 19:19 33.680117 -117.861826 90 64ft 0kts
07-Apr-18 19:20 33.680117 -117.861826 90 64ft 0kts
07-Apr-18 19:21 33.680117 -117.861826 90 64ft 0kts
07-Apr-18 19:22 33.680117 -117.861826 90 64ft 0kts
07-Apr-18 19:23 33.680117 -117.861826 90 64ft 0kts
07-Apr-18 19:24 33.680117 -117.861826 90 64ft 0kts
07-Apr-18 19:25 33.680117 -117.861826 90 63ft 0kts
07-Apr-18 19:26 33.680117 -117.861826 90 63ft 0kts
07-Apr-18 19:27 33.680117 -117.861826 90 63ft 0kts
07-Apr-18 19:28 33.680117 -117.861826 90 63ft 0kts
07-Apr-18 19:29 33.680117 -117.861826 90 63ft 0kts
07-Apr-18 19:30 33.680117 -117.861826 90 63ft 0kts
07-Apr-18 19:31 33.680117 -117.861826 90 63ft 0kts
07-Apr-18 19:32 33.680117 -117.861826 90 63ft 0kts
07-Apr-18 19:33 33.680117 -117.861826 90 63ft 0kts
07-Apr-18 19:34 33.680117 -117.861826 90 63ft 0kts
07-Apr-18 19:35 33.680117 -117.861826 90 63ft 0kts
07-Apr-18 19:36 33.680118 -117.862011 89 64ft 2kts
07-Apr-18 19:37 33.680069 -117.862653 51 64ft 2kts
07-Apr-18 19:38 33.679918 -117.862789 26 64ft 0kts
07-Apr-18 19:39 33.679918 -117.862789 26 64ft 0kts
07-Apr-18 19:40 33.679918 -117.862789 26 64ft 0kts
07-Apr-18 19:41 33.680573 -117.862903 300 63ft 0kts
07-Apr-18 19:42 33.680573 -117.862903 300 63ft 0kts
07-Apr-18 19:43 33.680601 -117.862959 300 64ft 2kts
07-Apr-18 19:44 33.680496 -117.865793 207 64ft 30kts
07-Apr-18 19:45 33.649665 -117.884723 199 1291ft 157kts
07-Apr-18 19:46 33.601620 -117.894044 187 2154ft 180kts
07-Apr-18 19:47 33.546944 -117.885349 156 4019ft 243kts
07-Apr-18 19:48 33.492106 -117.831622 118 7141ft 290kts
07-Apr-18 19:49 33.466017 -117.736403 85 10119ft 324kts
07-Apr-18 19:50 33.507829 -117.634780 53 12514ft 363kts
07-Apr-18 19:51 33.560266 -117.527664 59 15308ft 386kts
07-Apr-18 19:52 33.557190 -117.399886 112 17967ft 406kts
07-Apr-18 19:53 33.517152 -117.271943 114 20455ft 420kts
07-Apr-18 19:54 33.500971 -117.133288 92 22588ft 441kts
07-Apr-18 19:55 33.498626 -116.986016 93 24631ft 452kts
07-Apr-18 19:56 33.496278 -116.833981 92 26425ft 464kts
07-Apr-18 19:57 33.494691 -116.679150 92 27934ft 478kts
07-Apr-18 19:58 33.492738 -116.518475 92 29377ft 489kts
07-Apr-18 19:59 33.490510 -116.355912 93 31056ft 491kts
07-Apr-18 20:00 33.488197 -116.194904 94 32580ft 489kts
07-Apr-18 20:01 33.487133 -116.027560 84 32791ft 521kts
07-Apr-18 20:02 33.534115 -115.861649 69 32798ft 528kts
07-Apr-18 20:03 33.583193 -115.696902 70 32802ft 527kts
07-Apr-18 20:04 33.627339 -115.529846 89 32786ft 523kts
07-Apr-18 20:05 33.613734 -115.358102 94 32797ft 522kts
07-Apr-18 20:06 33.608861 -115.185127 95 32771ft 522kts
07-Apr-18 20:07 33.603982 -115.011800 94 32771ft 518kts
07-Apr-18 20:08 33.598970 -114.840081 94 32774ft 517kts
07-Apr-18 20:09 33.581369 -114.668838 107 31406ft 528kts
07-Apr-18 20:10 33.546913 -114.500758 106 28864ft 513kts
07-Apr-18 20:11 33.515066 -114.341097 106 26379ft 508kts
07-Apr-18 20:12 33.492887 -114.229586 105 24623ft 509kts
07-Apr-18 20:13 33.460076 -114.065276 105 22347ft 513kts
07-Apr-18 20:14 33.429586 -113.913511 105 20767ft 458kts
07-Apr-18 20:15 33.401718 -113.775260 105 19389ft 434kts
07-Apr-18 20:16 33.374218 -113.639811 105 18036ft 425kts
07-Apr-18 20:17 33.346597 -113.504500 104 16649ft 414kts
07-Apr-18 20:18 33.322739 -113.376710 102 16300ft 380kts
07-Apr-18 20:19 33.306261 -113.281563 103 16157ft 387kts
07-Apr-18 20:20 33.292360 -113.199079 101 16018ft 385kts
07-Apr-18 20:21 33.274585 -113.075249 100 15388ft 386kts
07-Apr-18 20:22 33.275241 -112.951332 88 14394ft 375kts
07-Apr-18 20:23 33.278897 -112.834010 88 13371ft 344kts
07-Apr-18 20:24 33.288058 -112.725526 83 13018ft 321kts
07-Apr-18 20:25 33.298303 -112.620450 83 13019ft 321kts
07-Apr-18 20:26 33.308187 -112.516253 83 13018ft 321kts
07-Apr-18 20:27 33.317926 -112.411730 83 12516ft 332kts
07-Apr-18 20:28 33.327269 -112.310502 84 11233ft 327kts
07-Apr-18 20:29 33.336817 -112.206681 84 9850ft 317kts
07-Apr-18 20:30 33.346117 -112.104313 84 8532ft 306kts
07-Apr-18 20:31 33.346999 -112.007788 92 7712ft 282kts
07-Apr-18 20:32 33.345867 -111.918654 92 7006ft 254kts
07-Apr-18 20:33 33.344951 -111.840634 91 6487ft 228kts
07-Apr-18 20:34 33.350956 -111.767463 49 5399ft 224kts
07-Apr-18 20:35 33.403816 -111.774985 330 4279ft 207kts
07-Apr-18 20:36 33.439025 -111.821341 272 3399ft 179kts
07-Apr-18 20:37 33.440671 -111.877193 268 2782ft 157kts
07-Apr-18 20:38 33.440737 -111.929005 268 2092ft 150kts
07-Apr-18 20:39 33.440783 -111.979052 268 1363ft 152kts
07-Apr-18 20:40 33.440777 -112.012936 254 1142ft 26kts
07-Apr-18 20:41 33.439961 -112.013565 166 1141ft 0kts
07-Apr-18 20:42 33.439729 -112.008367 89 1141ft 25kts
07-Apr-18 20:43 33.439021 -112.001543 90 1142ft 23kts

Navigation Log

Ident Type
Flight plan parsing failed, navigation log unavailable